Latest Weather Observations for Wudinna Airport

IDS60801

Issued at 11:02 pm CST Wednesday 28 September 2016 (issued every 30 minutes, with the page automatically refreshed every 10 minutes)

About weather observations | Map of weather stations | Latest weather observations for SA | Other Formats
Station Details ID: 018083 Name: WUDINNA AERO Lat: -33.04 Lon: 135.45 Height: 86.4 m
Data from the previous 72 hours. | See also: Recent months at Wudinna Airport
Date/Time
CST
Temp
°C
App
Temp
°C
Dew
Point
°C
Rel
Hum
%
Delta-T
°C
Wind Press
QNH
hPa
Press
MSL
hPa
Rain since
9am
mm
Dir  Spd
km/h
Gust
km/h
Spd
kts
Gust
kts
28/11:00pm 7.6 0.4 5.7 88 0.9 WNW 33 54 18 29 996.0 - 1.8
28/10:39pm 7.8 0.2 5.8 87 0.9 WNW 35 54 19 29 996.6 - 1.4
28/10:30pm 7.9 0.0 6.0 88 0.9 WNW 37 78 20 42 996.8 - 1.4
28/10:25pm 7.8 -4.3 5.9 88 0.9 WNW 59 78 32 42 997.1 - 1.4
28/10:23pm 7.6 1.0 5.9 89 0.8 NW 30 67 16 36 996.8 - 1.2
28/10:00pm 7.8 -0.2 5.6 86 1.0 NW 37 52 20 28 996.9 - 0.8
28/09:56pm 7.8 -0.6 5.4 85 1.1 WNW 39 54 21 29 996.9 - 0.8
28/09:38pm 7.7 0.5 6.0 89 0.8 NNW 33 52 18 28 997.1 - 0.8
28/09:30pm 7.8 0.6 5.9 88 0.9 NNW 33 44 18 24 997.2 - 0.6
28/09:00pm 7.7 0.0 5.3 85 1.1 NW 35 46 19 25 997.1 997.0 0.6
28/08:30pm 7.7 -0.1 4.8 82 1.3 NW 35 50 19 27 997.7 - 0.6
28/08:00pm 8.0 0.2 4.8 80 1.4 NW 35 48 19 26 997.6 - 0.4
28/07:31pm 8.2 1.4 5.0 80 1.4 NNW 30 63 16 34 998.0 - 0.4
28/07:30pm 8.0 1.5 4.9 81 1.4 NNW 28 43 15 23 998.0 - 0.4
28/07:00pm 8.0 2.2 4.4 78 1.6 NW 24 33 13 18 997.5 - 0.4
28/06:30pm 8.1 2.6 5.7 85 1.1 NW 24 30 13 16 997.6 - 0.4
28/06:00pm 8.0 2.5 6.1 88 0.9 WNW 24 44 13 24 997.8 997.7 0.4
28/05:30pm 8.8 -0.6 5.4 79 1.5 W 44 69 24 37 997.6 - 0.2
28/05:25pm 8.8 -1.8 5.2 78 1.6 W 50 69 27 37 997.7 - 0.2
28/05:22pm 8.9 -2.8 5.5 79 1.5 W 56 69 30 37 997.6 - 0.2
28/05:07pm 9.6 2.6 6.7 82 1.4 WNW 33 52 18 28 997.2 - 0.2
28/05:00pm 10.0 2.6 6.9 81 1.5 WNW 35 46 19 25 997.0 - 0.2
28/04:31pm 10.6 0.3 6.7 77 1.8 W 50 69 27 37 996.5 - 0.2
28/04:30pm 10.7 0.2 7.2 79 1.7 W 52 69 28 37 996.5 - 0.2
28/04:00pm 10.3 -1.3 6.5 77 1.8 WNW 57 89 31 48 996.0 - 0.0
28/03:57pm 10.3 -2.2 5.9 74 2.0 WNW 61 89 33 48 996.0 - 0.0
28/03:32pm 15.4 2.9 4.2 47 5.2 W 59 89 32 48 995.1 - 0.0
28/03:30pm 15.5 2.6 4.2 47 5.3 W 61 76 33 41 994.9 - 0.0
28/03:00pm 14.0 3.1 7.3 64 3.3 W 54 72 29 39 994.7 994.6 0.0
28/02:38pm 12.2 3.5 8.3 77 1.9 W 44 83 24 45 995.0 - 0.0
28/02:30pm 12.0 -1.6 7.7 75 2.1 W 69 98 37 53 995.0 - 0.0
28/02:00pm 16.2 3.9 6.9 54 4.6 WNW 61 87 33 47 994.4 - 0.0
28/01:58pm 16.5 3.9 7.2 54 4.6 WNW 63 87 34 47 994.4 - 0.0
28/01:57pm 16.5 3.1 6.9 53 4.8 WNW 67 87 36 47 994.3 - 0.0
28/01:30pm 17.6 8.3 7.4 51 5.2 W 46 69 25 37 994.4 - 0.0
28/01:00pm 18.4 7.7 6.6 46 5.9 W 52 70 28 38 993.9 - 0.0
28/12:30pm 21.4 9.9 6.9 39 7.4 WSW 57 78 31 42 993.3 - 0.0
28/12:25pm 21.9 10.6 7.0 38 7.7 WSW 56 78 30 42 993.2 - 0.0
28/12:06pm 22.8 12.4 7.8 38 7.9 W 52 63 28 34 992.8 - 0.0
28/12:04pm 24.6 16.3 7.7 34 9.0 WNW 41 63 22 34 992.5 - 0.0
28/12:00pm 26.0 19.1 10.2 37 8.9 WNW 37 56 20 30 992.5 992.4 0.0
28/11:59am 25.7 17.9 9.9 37 8.8 WNW 41 56 22 30 992.6 - 0.0
28/11:47am 24.9 17.5 10.0 39 8.2 NNW 39 48 21 26 992.8 - 0.0
28/11:30am 23.6 17.9 9.9 42 7.5 N 30 50 16 27 993.4 - 0.0
28/11:03am 20.5 13.0 9.4 49 5.9 N 39 57 21 31 993.3 - 0.0
28/11:00am 20.4 12.6 9.6 50 5.8 N 41 57 22 31 993.4 - 0.0
28/10:41am 19.3 11.3 8.9 51 5.5 NNE 41 61 22 33 994.2 - 0.0
28/10:30am 18.9 11.2 8.8 52 5.3 NNE 39 56 21 30 994.6 - 0.0
28/10:00am 18.7 11.0 10.0 57 4.7 NNE 41 59 22 32 995.3 - 0.0
28/09:57am 18.4 10.7 10.0 58 4.5 NNE 41 59 22 32 995.4 - 0.0
28/09:30am 15.5 8.7 11.9 79 2.0 NNE 39 52 21 28 995.6 - 0.0
28/09:00am 11.8 3.2 9.0 83 1.4 NNE 44 57 24 31 996.1 996.0 2.2
28/08:49am 11.5 3.9 8.9 84 1.3 NNE 39 57 21 31 997.1 - 2.2
28/08:30am 11.2 2.9 7.7 79 1.7 N 41 57 22 31 998.5 - 1.6
28/08:06am 11.8 3.6 5.0 63 3.1 NNE 37 56 20 30 998.8 - 1.0
28/08:00am 11.9 2.9 4.6 61 3.3 N 41 56 22 30 999.1 - 0.8
28/07:55am 15.8 7.1 -0.8 32 7.0 N 35 54 19 29 999.4 - 0.0
28/07:30am 15.4 7.1 -0.4 34 6.7 NNE 33 48 18 26 999.1 - 0.0
28/07:00am 14.6 6.3 -0.3 36 6.3 NNE 33 46 18 25 999.7 - 0.0
28/06:30am 14.2 6.2 0.1 38 5.9 NNE 32 43 17 23 1000.6 - 0.0
28/06:00am 13.1 6.3 0.5 42 5.3 NNE 26 37 14 20 1001.3 1001.2 0.0
28/05:30am 13.2 6.0 0.9 43 5.2 NNE 28 41 15 22 1001.9 - 0.0
28/05:00am 13.6 6.1 0.9 42 5.4 NNE 30 41 16 22 1002.4 - 0.0
28/04:30am 13.9 7.1 0.9 41 5.6 NNE 26 37 14 20 1003.0 - 0.0
28/04:00am 12.7 7.1 1.4 46 4.8 NNE 20 28 11 15 1003.6 - 0.0
28/03:30am 12.6 6.9 0.4 43 5.1 NNE 20 28 11 15 1004.3 - 0.0
28/03:00am 11.7 6.5 0.2 45 4.8 NNE 17 22 9 12 1005.2 1005.1 0.0
28/02:30am 12.3 6.5 0.1 43 5.1 NNE 20 28 11 15 1006.2 - 0.0
28/02:00am 12.7 6.9 0.1 42 5.2 NNE 20 26 11 14 1006.9 - 0.0
28/01:30am 12.1 6.7 1.4 48 4.6 NNE 19 24 10 13 1007.9 - 0.0
28/01:20am 11.5 6.8 3.0 56 3.7 NNE 17 22 9 12 1008.3 - 0.0
28/01:00am 6.5 3.6 2.8 77 1.5 NE 7 11 4 6 1008.9 - 0.0
28/12:30am 6.9 3.9 3.9 81 1.3 NE 9 13 5 7 1009.4 - 0.0
28/12:00am 6.7 3.8 4.9 88 0.8 NNE 9 11 5 6 1009.9 1009.8 0.0
 
Date/Time
CST
Temp
°C
App
Temp
°C
Dew
Point
°C
Rel
Hum
%
Delta-T
°C
Wind Press
QNH
hPa
Press
MSL
hPa
Rain since
9am
mm
Dir  Spd
km/h
Gust
km/h
Spd
kts
Gust
kts
27/11:30pm 7.3 4.6 5.4 88 0.8 NNE 9 11 5 6 1010.5 - 0.0
27/11:00pm 6.5 3.2 4.3 86 1.0 NNE 11 11 6 6 1011.0 - 0.0
27/10:30pm 7.1 3.9 4.9 86 1.0 NE 11 13 6 7 1011.4 - 0.0
27/10:00pm 8.0 4.8 5.1 82 1.3 NE 11 13 6 7 1011.9 - 0.0
27/09:30pm 8.3 5.2 5.4 82 1.3 NE 11 13 6 7 1012.2 - 0.0
27/09:00pm 7.9 5.4 4.8 81 1.4 ENE 7 9 4 5 1012.1 1012.0 0.0
27/08:30pm 8.2 7.0 4.8 79 1.5 CALM 0 0 0 0 1012.2 - 0.0
27/08:00pm 9.3 6.9 5.1 75 1.9 NE 7 9 4 5 1012.2 - 0.0
27/07:30pm 11.3 10.2 5.2 66 2.8 CALM 0 0 0 0 1012.4 - 0.0
27/07:00pm 14.3 12.3 6.4 59 3.8 S 6 7 3 4 1012.3 - 0.0
27/06:30pm 16.1 13.0 5.7 50 5.0 SW 11 13 6 7 1012.2 - 0.0
27/06:00pm 19.7 16.9 3.0 33 7.8 W 7 9 4 5 1012.3 1012.2 0.0
27/05:30pm 20.5 17.2 2.3 30 8.5 W 9 15 5 8 1012.2 - 0.0
27/05:00pm 20.9 17.2 2.2 29 8.7 WNW 11 17 6 9 1012.5 - 0.0
27/04:30pm 21.2 18.3 2.5 29 8.8 NNW 7 20 4 11 1012.5 - 0.0
27/04:00pm 21.2 16.7 2.0 28 8.9 WNW 15 20 8 11 1012.9 - 0.0
27/03:30pm 21.5 18.6 2.7 29 8.9 NE 7 11 4 6 1013.2 - 0.0
27/03:00pm 21.2 16.8 2.5 29 8.8 W 15 20 8 11 1013.4 1013.3 0.0
27/02:30pm 20.9 16.1 2.7 30 8.6 WNW 17 33 9 18 1013.6 - 0.0
27/02:00pm 20.7 17.1 3.0 31 8.4 SW 11 19 6 10 1014.2 - 0.0
27/01:30pm 20.1 15.2 2.0 30 8.4 NW 17 30 9 16 1014.7 - 0.0
27/01:00pm 19.2 15.0 1.7 31 8.0 WNW 13 20 7 11 1015.2 - 0.0
27/12:30pm 19.2 15.1 2.1 32 7.9 W 13 26 7 14 1015.8 - 0.0
27/12:00pm 18.4 13.2 2.3 34 7.4 W 19 22 10 12 1016.2 1016.2 0.0
27/11:30am 18.1 13.7 2.8 36 7.1 W 15 28 8 15 1016.8 - 0.0
27/11:00am 17.3 13.2 2.1 36 6.9 WSW 13 20 7 11 1017.0 - 0.0
27/10:30am 16.0 11.5 2.4 40 6.1 SW 15 20 8 11 1017.2 - 0.0
27/10:00am 15.2 11.6 3.0 44 5.5 WNW 11 19 6 10 1017.5 - 0.0
27/09:30am 14.9 10.7 3.7 47 5.1 WNW 15 30 8 16 1017.6 - 0.0
27/09:00am 14.2 10.4 3.7 49 4.8 NW 13 19 7 10 1017.5 1017.5 0.0
27/08:30am 12.1 8.0 4.3 59 3.5 NNW 15 19 8 10 1017.6 - 0.0
27/08:00am 10.6 6.2 4.5 66 2.7 NNW 17 22 9 12 1017.4 - 0.0
27/07:30am 8.8 4.2 3.6 70 2.3 NNW 17 24 9 13 1017.3 - 0.0
27/07:00am 7.2 2.5 3.3 76 1.7 NNW 17 22 9 12 1017.0 - 0.0
27/06:30am 5.7 1.8 3.2 84 1.0 NNW 13 19 7 10 1017.0 - 0.0
27/06:00am 4.1 1.1 2.0 86 0.8 N 7 9 4 5 1016.7 1016.7 0.0
27/05:30am 5.2 1.6 2.9 85 0.9 NNW 11 15 6 8 1016.5 - 0.0
27/05:00am 5.4 1.4 2.9 84 1.0 NNW 13 15 7 8 1016.3 - 0.0
27/04:30am 6.1 2.7 3.8 85 1.0 NNW 11 15 6 8 1016.1 - 0.0
27/04:00am 5.3 1.4 3.5 88 0.8 NW 13 15 7 8 1015.9 - 0.0
27/03:30am 6.2 2.8 3.9 85 1.0 NNW 11 15 6 8 1015.7 - 0.0
27/03:00am 5.6 2.2 3.9 89 0.7 NNW 11 15 6 8 1015.8 1015.8 0.0
27/02:30am 4.9 1.1 3.7 92 0.5 NNW 13 13 7 7 1016.1 - 0.0
27/02:00am 5.0 1.5 3.3 89 0.7 NNW 11 13 6 7 1016.3 - 0.0
27/01:30am 5.3 1.8 3.5 88 0.8 NNW 11 11 6 6 1016.5 - 0.0
27/01:00am 5.4 1.5 3.3 86 0.9 NW 13 15 7 8 1016.9 - 0.0
27/12:30am 7.6 4.3 4.6 81 1.3 NW 11 13 6 7 1017.0 - 0.0
27/12:00am 6.5 2.4 4.5 87 0.9 NW 15 17 8 9 1017.2 1017.2 0.0
 
Date/Time
CST
Temp
°C
App
Temp
°C
Dew
Point
°C
Rel
Hum
%
Delta-T
°C
Wind Press
QNH
hPa
Press
MSL
hPa
Rain since
9am
mm
Dir  Spd
km/h
Gust
km/h
Spd
kts
Gust
kts
26/11:30pm 5.2 1.3 3.4 88 0.8 NNW 13 15 7 8 1017.1 - 0.0
26/11:00pm 4.4 0.7 2.4 87 0.8 NNW 11 13 6 7 1017.6 - 0.0
26/10:30pm 5.1 1.1 3.1 87 0.8 NW 13 15 7 8 1017.8 - 0.0
26/10:00pm 5.4 1.4 2.8 83 1.1 NW 13 15 7 8 1017.7 - 0.0
26/09:30pm 6.0 2.4 3.2 82 1.2 NW 11 13 6 7 1017.7 - 0.0
26/09:00pm 5.4 2.7 2.8 83 1.1 NNW 6 11 3 6 1017.5 1017.5 0.0
26/08:30pm 5.2 2.0 2.9 85 0.9 W 9 11 5 6 1017.2 - 0.0
26/08:00pm 7.3 3.7 3.2 75 1.7 W 11 13 6 7 1016.9 - 0.0
26/07:30pm 8.3 4.7 3.0 69 2.3 WSW 11 13 6 7 1016.5 - 0.0
26/07:00pm 9.3 5.3 2.9 64 2.7 WSW 13 15 7 8 1016.3 - 0.0
26/06:30pm 11.5 7.2 3.3 57 3.6 WSW 15 20 8 11 1016.1 - 0.0
26/06:00pm 13.0 7.3 3.1 51 4.4 SW 22 28 12 15 1015.7 1015.7 0.0
26/05:30pm 14.4 8.2 2.3 44 5.4 SW 24 30 13 16 1015.2 - 0.0
26/05:00pm 15.2 8.7 2.4 42 5.7 SW 26 37 14 20 1014.9 - 0.0
26/04:30pm 16.2 8.9 0.3 34 6.9 SW 28 43 15 23 1014.5 - 0.0
26/04:00pm 17.3 10.9 0.9 33 7.2 WSW 24 39 13 21 1014.1 - 0.0
26/03:30pm 17.0 10.6 1.0 34 7.1 WSW 24 33 13 18 1013.9 - 0.0
26/03:00pm 17.2 10.4 0.8 33 7.2 SW 26 35 14 19 1014.1 1014.0 0.0
26/02:30pm 17.6 10.9 1.2 33 7.3 WSW 26 43 14 23 1014.0 - 0.0
26/02:00pm 17.6 10.3 2.4 36 6.9 SW 30 43 16 23 1014.1 - 0.0
26/01:30pm 18.2 11.3 2.5 35 7.2 SW 28 39 15 21 1014.1 - 0.0
26/01:00pm 18.6 12.5 2.9 35 7.3 SW 24 33 13 18 1014.2 - 0.0
26/12:30pm 18.3 12.4 4.1 39 6.7 SW 24 35 13 19 1014.3 - 0.0
26/12:00pm 18.5 11.9 4.3 39 6.8 W 28 37 15 20 1014.6 1014.5 0.0
26/11:30am 18.1 12.2 6.0 45 6.0 W 26 35 14 19 1014.5 - 0.0
26/11:00am 17.6 12.0 7.1 50 5.3 WSW 26 37 14 20 1014.6 - 0.0
26/10:30am 18.4 13.7 7.8 50 5.4 W 22 32 12 17 1014.6 - 0.0
26/10:00am 16.6 12.5 7.8 56 4.4 WNW 19 28 10 15 1014.6 - 0.0
26/09:30am 16.2 11.8 8.9 62 3.8 WSW 22 30 12 16 1014.8 - 0.0
26/09:00am 14.8 10.5 6.9 59 3.9 WSW 19 24 10 13 1014.7 1014.6 0.0
26/08:30am 14.5 10.1 5.0 53 4.5 WNW 17 24 9 13 1014.3 - 0.0
26/08:00am 13.7 8.4 2.9 48 4.8 WNW 20 26 11 14 1013.9 - 0.0
26/07:30am 11.9 8.4 3.7 57 3.7 NW 11 17 6 9 1013.7 - 0.0
26/07:00am 9.5 4.8 3.0 64 2.8 NW 17 22 9 12 1013.6 - 0.0
26/06:30am 10.0 2.9 1.4 55 3.6 W 28 54 15 29 1013.6 - 0.0
26/06:28am 10.2 2.1 1.1 53 3.8 W 33 54 18 29 1013.8 - 0.0
26/06:00am 10.9 5.2 0.6 49 4.3 N 20 26 11 14 1012.1 1012.0 0.0
26/05:30am 11.1 5.6 0.8 49 4.3 N 19 28 10 15 1011.3 - 0.0
26/05:00am 11.6 7.4 1.5 50 4.3 N 13 20 7 11 1011.3 - 0.0
26/04:30am 11.4 5.9 1.9 52 4.1 N 20 26 11 14 1011.5 - 0.0
26/04:00am 10.4 5.0 2.7 59 3.3 N 20 30 11 16 1011.4 - 0.0
26/03:30am 9.8 4.3 3.8 66 2.6 N 22 26 12 14 1011.4 - 0.0
26/03:00am 9.3 4.3 4.5 72 2.1 NNE 20 24 11 13 1011.7 1011.6 0.0
26/02:30am 9.0 4.1 5.2 77 1.7 NNE 20 26 11 14 1012.1 - 0.0
26/02:00am 6.9 3.7 4.9 87 0.9 NE 11 15 6 8 1012.4 - 0.0
26/01:30am 6.1 3.2 4.4 89 0.7 ENE 9 11 5 6 1013.1 - 0.0
26/01:00am 6.1 3.5 4.4 89 0.7 NNE 7 11 4 6 1013.3 - 0.0
26/12:30am 6.6 2.3 5.2 91 0.6 NE 17 20 9 11 1013.4 - 0.0
26/12:00am 5.7 2.3 4.2 90 0.6 NE 11 13 6 7 1014.2 1014.1 0.0
 
Date/Time
CST
Temp
°C
App
Temp
°C
Dew
Point
°C
Rel
Hum
%
Delta-T
°C
Wind Press
QNH
hPa
Press
MSL
hPa
Rain since
9am
mm
Dir  Spd
km/h
Gust
km/h
Spd
kts
Gust
kts
25/11:30pm 5.5 1.8 4.3 92 0.5 NNE 13 17 7 9 1014.7 - 0.0

Other Formats:

Comma delimited format used in spreadsheet applications
http://www.bom.gov.au/fwo/IDS60801/IDS60801.95654.axf

JavaScript Object Notation format (JSON) in row-major order
http://www.bom.gov.au/fwo/IDS60801/IDS60801.95654.json